Time;durP1;ratioP1;P1;durP2;ratioP2;P2;SDS_P1;SDS_P2;PMS_P1;PMS_P2;Temp;Humidity;BMP_temperature;BMP_pressure;BME280_temperature;BME280_humidity;BME280_pressure;Samples;Min_cycle;Max_cycle;Signal;HPM_P1;HPM_P2
2021/12/25 00:04:49;;;;;;;30.10;26.88;;;;;;;;;;12549334;28;20032;-72
2021/12/25 00:10:51;;;;;;;28.45;24.90;;;;;;;;;;12548646;28;20056;-74
2021/12/25 00:16:53;;;;;;;33.70;30.03;;;;;;;;;;12548835;28;20041;-73
2021/12/25 00:22:54;;;;;;;42.45;37.58;;;;;;;;;;12547224;28;20044;-72
2021/12/25 00:29:05;;;;;;;39.70;34.90;;;;;;;;;;12546719;28;20045;-73
2021/12/25 00:35:07;;;;;;;34.45;30.77;;;;;;;;;;12547579;28;20040;-73
2021/12/25 00:41:10;;;;;;;;;;;;;;;;;;12547350;28;20043;-73
2021/12/25 00:47:12;;;;;;;32.40;28.90;;;;;;;;;;12547338;28;19912;-73
2021/12/25 00:53:13;;;;;;;33.60;30.02;;;;;;;;;;12547495;28;20040;-73
2021/12/25 00:59:15;;;;;;;34.17;30.48;;;;;;;;;;12545300;28;20029;-72
2021/12/25 01:05:17;;;;;;;31.45;27.92;;;;;;;;;;12544728;28;20029;-72
2021/12/25 01:11:23;;;;;;;28.48;25.35;;;;;;;;;;12528279;28;20060;-72
2021/12/25 01:49:23;;;;;;;31.15;27.67;;;;;;;;;;12535989;28;20053;-73
2021/12/25 01:55:29;;;;;;;38.92;33.35;;;;;;;;;;12544660;28;20029;-73
2021/12/25 02:01:31;;;;;;;31.60;28.25;;;;;;;;;;12544609;28;20036;-73
2021/12/25 02:07:32;;;;;;;32.60;29.02;;;;;;;;;;12544258;28;20040;-73
2021/12/25 02:13:34;;;;;;;30.98;27.65;;;;;;;;;;12526105;28;20522;-73
2021/12/25 02:19:46;;;;;;;35.70;28.13;;;;;;;;;;12542567;28;20033;-73
2021/12/25 02:25:49;;;;;;;32.53;29.13;;;;;;;;;;12542373;28;20036;-73
2021/12/25 02:31:51;;;;;;;29.08;26.00;;;;;;;;;;12545602;28;20048;-73
2021/12/25 02:37:53;;;;;;;28.42;25.40;;;;;;;;;;12552390;28;20033;-74
2021/12/25 02:43:55;;;;;;;28.70;25.65;;;;;;;;;;12552409;28;20494;-74
2021/12/25 02:50:22;;;;;;;30.77;25.83;;;;;;;;;;12537473;28;20040;-73
2021/12/25 02:56:24;;;;;;;29.30;25.30;;;;;;;;;;12534504;28;20507;-73
2021/12/25 03:02:25;;;;;;;21.85;19.58;;;;;;;;;;12551051;28;20040;-73
2021/12/25 03:08:27;;;;;;;27.77;24.80;;;;;;;;;;12550561;28;20053;-73
2021/12/25 03:14:39;;;;;;;21.65;19.30;;;;;;;;;;12550320;28;20052;-73
2021/12/25 03:20:44;;;;;;;25.55;22.85;;;;;;;;;;12550391;28;20478;-73
2021/12/25 03:26:52;;;;;;;28.33;25.35;;;;;;;;;;12533361;28;20048;-73
2021/12/25 03:32:55;;;;;;;33.85;29.20;;;;;;;;;;12532788;28;20425;-73
2021/12/25 03:38:57;;;;;;;30.45;27.15;;;;;;;;;;12532994;28;20033;-73
2021/12/25 03:45:00;;;;;;;28.55;25.58;;;;;;;;;;12532113;28;20037;-73
2021/12/25 04:03:46;;;;;;;27.80;24.90;;;;;;;;;;12548724;28;20033;-73
2021/12/25 04:09:48;;;;;;;28.02;24.83;;;;;;;;;;12531603;28;20063;-73
2021/12/25 04:15:51;;;;;;;27.83;24.85;;;;;;;;;;12548228;28;20028;-73
2021/12/25 04:22:10;;;;;;;23.25;20.92;;;;;;;;;;12549231;28;20029;-73
2021/12/25 04:28:32;;;;;;;29.90;26.73;;;;;;;;;;12547924;28;20043;-73
2021/12/25 05:06:03;;;;;;;22.52;19.85;;;;;;;;;;12544928;28;20041;-73
2021/12/25 05:12:09;;;;;;;21.65;19.35;;;;;;;;;;12544904;28;20048;-72
2021/12/25 05:18:11;;;;;;;23.57;21.17;;;;;;;;;;12528176;28;20040;-72
2021/12/25 05:24:13;;;;;;;20.08;17.98;;;;;;;;;;12544437;28;20032;-72
2021/12/25 05:30:22;;;;;;;20.08;17.92;;;;;;;;;;12544225;28;20043;-73
2021/12/25 05:36:46;;;;;;;19.20;17.30;;;;;;;;;;12544887;28;20036;-73
2021/12/25 05:43:14;;;;;;;20.00;18.00;;;;;;;;;;12546324;28;20045;-72
2021/12/25 05:49:15;;;;;;;21.00;19.00;;;;;;;;;;12544254;28;20091;-73
2021/12/25 05:55:36;;;;;;;20.13;18.05;;;;;;;;;;12544418;28;20041;-73
2021/12/25 06:01:58;;;;;;;19.48;17.60;;;;;;;;;;12544195;28;20033;-72
2021/12/25 06:08:03;;;;;;;21.45;19.23;;;;;;;;;;12542905;28;20040;-73
2021/12/25 06:14:10;;;;;;;19.13;17.13;;;;;;;;;;12543603;28;20045;-72
2021/12/25 06:20:23;;;;;;;21.33;19.13;;;;;;;;;;12527855;28;20390;-73
2021/12/25 06:26:43;;;;;;;19.83;17.83;;;;;;;;;;12543592;28;20176;-72
2021/12/25 06:32:58;;;;;;;18.90;17.00;;;;;;;;;;12543682;28;20041;-72
2021/12/25 06:39:22;;;;;;;20.10;18.15;;;;;;;;;;12542212;28;20048;-72
2021/12/25 06:45:56;;;;;;;22.13;19.92;;;;;;;;;;12542148;28;20036;-72
2021/12/25 06:51:59;;;;;;;22.45;20.15;;;;;;;;;;12541640;28;20045;-72
2021/12/25 06:58:17;;;;;;;21.73;19.42;;;;;;;;;;12541515;28;20064;-73
2021/12/25 07:04:19;;;;;;;22.50;20.20;;;;;;;;;;12542547;28;20037;-73
2021/12/25 07:10:50;;;;;;;24.30;21.80;;;;;;;;;;12540300;28;20048;-73
2021/12/25 07:17:21;;;;;;;27.90;25.08;;;;;;;;;;12542949;28;20059;-72
2021/12/25 07:23:34;;;;;;;;;;;;;;;;;;12535311;28;20025;-73
2021/12/25 07:29:46;;;;;;;25.40;22.83;;;;;;;;;;12534610;28;19927;-72
2021/12/25 07:35:48;;;;;;;23.63;21.25;;;;;;;;;;12550646;28;20028;-73
2021/12/25 07:41:49;;;;;;;23.88;21.50;;;;;;;;;;12551193;28;20045;-74
2021/12/25 07:48:02;;;;;;;23.15;20.77;;;;;;;;;;12533561;28;20038;-73
2021/12/25 07:54:04;;;;;;;22.92;20.67;;;;;;;;;;12549695;28;20517;-73
2021/12/25 08:00:11;;;;;;;22.70;20.42;;;;;;;;;;12547874;28;20051;-73
2021/12/25 08:06:15;;;;;;;22.15;19.77;;;;;;;;;;12549113;28;20036;-73
2021/12/25 08:12:17;;;;;;;29.08;26.23;;;;;;;;;;12547624;28;20057;-73
2021/12/25 08:18:19;;;;;;;33.65;30.38;;;;;;;;;;12547425;28;20033;-73
2021/12/25 08:24:59;;;;;;;29.55;26.55;;;;;;;;;;12542513;28;20033;-73
2021/12/25 08:31:19;;;;;;;26.25;23.42;;;;;;;;;;12547132;28;20485;-73
2021/12/25 08:37:36;;;;;;;22.42;20.02;;;;;;;;;;12548012;28;20033;-73
2021/12/25 08:43:46;;;;;;;30.15;27.08;;;;;;;;;;12549002;28;20033;-73
2021/12/25 08:49:48;;;;;;;29.85;26.67;;;;;;;;;;12547034;28;20524;-73
2021/12/25 08:55:50;;;;;;;26.02;23.48;;;;;;;;;;12545883;28;20037;-73
2021/12/25 09:01:52;;;;;;;24.88;22.38;;;;;;;;;;12544767;28;20044;-73
2021/12/25 09:07:54;;;;;;;24.77;22.27;;;;;;;;;;12546786;28;20036;-73
2021/12/25 09:13:55;;;;;;;26.75;24.10;;;;;;;;;;12544580;28;20493;-74
2021/12/25 09:19:57;;;;;;;24.50;21.98;;;;;;;;;;12546189;28;20041;-72
2021/12/25 09:25:59;;;;;;;33.50;29.90;;;;;;;;;;12527827;28;20075;-72
2021/12/25 09:32:01;;;;;;;28.80;25.95;;;;;;;;;;12526839;28;20044;-72
2021/12/25 09:38:02;;;;;;;25.98;23.17;;;;;;;;;;12527077;28;20040;-72
2021/12/25 09:44:05;;;;;;;25.00;22.40;;;;;;;;;;12544456;28;20029;-73
2021/12/25 09:50:07;;;;;;;24.02;21.52;;;;;;;;;;12543795;28;20230;-73
2021/12/25 09:56:09;;;;;;;24.93;22.43;;;;;;;;;;12542788;28;20033;-73
2021/12/25 10:02:15;;;;;;;23.02;20.65;;;;;;;;;;12543924;28;20040;-73
2021/12/25 10:08:17;;;;;;;22.98;20.73;;;;;;;;;;12542614;28;20037;-73
2021/12/25 10:14:19;;;;;;;24.67;22.25;;;;;;;;;;12525759;28;20033;-72
2021/12/25 10:20:22;;;;;;;25.85;23.13;;;;;;;;;;12525614;28;20033;-73
2021/12/25 10:26:23;;;;;;;;;;;;;;;;;;12543043;28;20036;-73
2021/12/25 10:32:25;;;;;;;22.20;20.08;;;;;;;;;;12525907;28;19917;-73
2021/12/25 10:38:28;;;;;;;22.95;20.55;;;;;;;;;;12543285;28;20037;-74
2021/12/25 10:44:36;;;;;;;24.83;22.23;;;;;;;;;;12542371;28;20512;-74
2021/12/25 10:50:40;;;;;;;20.92;18.83;;;;;;;;;;12542853;28;20048;-73
2021/12/25 10:56:43;;;;;;;29.00;25.95;;;;;;;;;;12550498;28;20476;-74
2021/12/25 11:02:46;;;;;;;32.40;28.90;;;;;;;;;;12551049;28;20036;-74
2021/12/25 11:08:48;;;;;;;;;;;;;;;;;;12552165;28;20060;-74
2021/12/25 11:14:50;;;;;;;24.05;21.58;;;;;;;;;;12550095;28;20312;-73
2021/12/25 11:20:52;;;;;;;30.20;27.02;;;;;;;;;;12551316;28;20053;-73
2021/12/25 11:26:57;;;;;;;29.37;26.17;;;;;;;;;;12550897;28;20457;-73
2021/12/25 11:32:59;;;;;;;35.78;32.00;;;;;;;;;;12550584;28;20056;-73
2021/12/25 11:39:01;;;;;;;32.30;28.73;;;;;;;;;;12549558;28;20033;-73
2021/12/25 11:45:19;;;;;;;36.17;32.38;;;;;;;;;;12549980;28;20032;-73
2021/12/25 11:51:30;;;;;;;33.05;29.38;;;;;;;;;;12548435;28;20053;-73
2021/12/25 11:57:56;;;;;;;32.58;29.08;;;;;;;;;;12549059;28;20413;-73
2021/12/25 12:04:00;;;;;;;30.40;27.20;;;;;;;;;;12547359;28;20036;-74
2021/12/25 12:10:03;;;;;;;33.97;30.27;;;;;;;;;;12547480;28;20072;-74
2021/12/25 12:16:37;;;;;;;33.17;29.73;;;;;;;;;;12548541;28;20489;-73
2021/12/25 12:22:58;;;;;;;26.45;23.65;;;;;;;;;;12547359;28;20040;-74
2021/12/25 12:29:00;;;;;;;;;;;;;;;;;;12547262;28;20037;-74
2021/12/25 12:35:02;;;;;;;31.83;28.40;;;;;;;;;;12547641;28;20289;-73
2021/12/25 12:41:10;;;;;;;39.13;34.90;;;;;;;;;;12547244;28;20481;-73
2021/12/25 12:47:18;;;;;;;31.40;28.02;;;;;;;;;;12529251;28;20490;-74
2021/12/25 12:53:21;;;;;;;29.60;26.50;;;;;;;;;;12546193;28;20056;-74
2021/12/25 12:59:22;;;;;;;35.17;31.17;;;;;;;;;;12529246;28;20043;-74
2021/12/25 13:05:29;;;;;;;24.52;21.95;;;;;;;;;;12545326;28;20040;-74
2021/12/25 13:11:41;;;;;;;29.83;25.65;;;;;;;;;;12527971;28;20406;-72
2021/12/25 13:17:46;;;;;;;22.13;19.88;;;;;;;;;;12544145;28;20493;-73
2021/12/25 13:23:53;;;;;;;28.95;25.90;;;;;;;;;;12527811;28;20036;-73
2021/12/25 13:29:55;;;;;;;26.30;23.60;;;;;;;;;;12544908;28;20044;-74
2021/12/25 13:36:02;;;;;;;24.15;21.08;;;;;;;;;;12544107;28;20394;-74
2021/12/25 13:42:11;;;;;;;30.65;27.27;;;;;;;;;;12546367;28;20462;-73
2021/12/25 13:48:13;;;;;;;25.85;23.13;;;;;;;;;;12526938;28;20036;-73
2021/12/25 13:54:18;;;;;;;24.17;21.70;;;;;;;;;;12543272;28;20402;-74
2021/12/25 14:00:30;;;;;;;23.58;21.08;;;;;;;;;;12544383;28;20040;-73
2021/12/25 14:06:31;;;;;;;22.85;20.10;;;;;;;;;;12543303;28;20044;-74
2021/12/25 14:12:34;;;;;;;27.48;22.58;;;;;;;;;;12542453;28;20045;-73
2021/12/25 14:18:38;;;;;;;23.43;20.97;;;;;;;;;;12544101;28;20418;-73
2021/12/25 14:24:44;;;;;;;29.00;25.38;;;;;;;;;;12542574;28;20381;-74
2021/12/25 14:30:59;;;;;;;23.15;20.67;;;;;;;;;;12553739;28;20045;-74
2021/12/25 14:37:02;;;;;;;22.10;19.80;;;;;;;;;;12553647;28;20362;-74
2021/12/25 14:43:04;;;;;;;;;;;;;;;;;;12553406;28;20393;-72
2021/12/25 14:49:06;;;;;;;22.00;19.70;;;;;;;;;;12552095;28;19931;-74
2021/12/25 14:55:17;;;;;;;23.23;19.33;;;;;;;;;;12551605;28;20045;-73
2021/12/25 15:01:22;;;;;;;22.38;20.08;;;;;;;;;;12551318;28;20378;-73
2021/12/25 15:07:24;;;;;;;22.17;19.20;;;;;;;;;;12551216;28;20032;-74
2021/12/25 15:13:26;;;;;;;19.52;17.52;;;;;;;;;;12551458;28;20053;-74
2021/12/25 15:19:32;;;;;;;22.98;20.52;;;;;;;;;;12550196;28;20489;-73
2021/12/25 15:25:35;;;;;;;25.35;22.80;;;;;;;;;;12551589;28;20596;-73
2021/12/25 15:31:37;;;;;;;33.78;30.23;;;;;;;;;;12549925;28;20423;-73
2021/12/25 15:37:41;;;;;;;25.25;22.42;;;;;;;;;;12532187;28;20378;-73
2021/12/25 15:43:44;;;;;;;33.45;30.00;;;;;;;;;;12551366;28;20064;-73
2021/12/25 15:49:46;;;;;;;25.30;22.60;;;;;;;;;;12549875;28;20040;-73
2021/12/25 15:55:48;;;;;;;25.83;22.57;;;;;;;;;;12549729;28;20053;-73
2021/12/25 16:01:50;;;;;;;24.08;21.52;;;;;;;;;;12549406;28;20032;-73
2021/12/25 16:07:51;;;;;;;23.63;21.13;;;;;;;;;;12549028;28;20044;-73
2021/12/25 16:13:53;;;;;;;21.85;19.58;;;;;;;;;;12549483;28;20052;-73
2021/12/25 16:19:55;;;;;;;23.50;20.73;;;;;;;;;;12547569;28;20032;-73
2021/12/25 16:25:56;;;;;;;23.80;21.30;;;;;;;;;;12547376;28;20033;-73
2021/12/25 16:31:58;;;;;;;24.27;21.70;;;;;;;;;;12548501;28;20056;-73
2021/12/25 16:38:00;;;;;;;24.33;21.92;;;;;;;;;;12546752;28;20036;-73
2021/12/25 16:44:02;;;;;;;23.83;21.33;;;;;;;;;;12546336;28;20040;-73
2021/12/25 16:50:06;;;;;;;23.93;21.53;;;;;;;;;;12546235;28;20061;-73
2021/12/25 16:56:07;;;;;;;23.27;20.88;;;;;;;;;;12546325;28;20036;-73
2021/12/25 17:02:10;;;;;;;26.35;23.58;;;;;;;;;;12546521;28;20029;-73
2021/12/25 17:08:11;;;;;;;26.43;23.63;;;;;;;;;;12545815;28;20470;-73
2021/12/25 17:14:13;;;;;;;22.42;20.08;;;;;;;;;;12544977;28;20482;-73
2021/12/25 17:20:16;;;;;;;24.75;22.30;;;;;;;;;;12544388;28;20413;-73
2021/12/25 17:26:18;;;;;;;34.58;30.42;;;;;;;;;;12544336;28;20040;-73
2021/12/25 17:32:19;;;;;;;34.70;30.50;;;;;;;;;;12545987;28;20048;-74
2021/12/25 17:38:21;;;;;;;25.83;23.08;;;;;;;;;;12543256;28;20037;-73
2021/12/25 17:44:23;;;;;;;27.58;24.73;;;;;;;;;;12543172;28;20032;-73
2021/12/25 17:50:27;;;;;;;28.70;25.63;;;;;;;;;;12543726;28;20041;-73
2021/12/25 17:56:28;;;;;;;29.80;26.67;;;;;;;;;;12543235;28;20037;-73
2021/12/25 18:02:30;;;;;;;33.53;29.98;;;;;;;;;;12543847;28;20059;-73
2021/12/25 18:08:32;;;;;;;29.30;26.17;;;;;;;;;;12543521;28;20052;-73
2021/12/25 18:14:35;;;;;;;33.72;29.25;;;;;;;;;;12544335;28;20486;-73
2021/12/25 18:20:40;;;;;;;34.07;30.37;;;;;;;;;;12544214;28;20025;-72
2021/12/25 18:26:42;;;;;;;33.90;30.38;;;;;;;;;;12543960;28;20029;-73
2021/12/25 18:32:44;;;;;;;31.55;28.13;;;;;;;;;;12542634;28;20060;-72
2021/12/25 18:38:45;;;;;;;27.53;24.53;;;;;;;;;;12525471;28;20040;-72
2021/12/25 18:44:47;;;;;;;31.15;27.92;;;;;;;;;;12543207;28;20375;-72
2021/12/25 18:50:49;;;;;;;29.92;26.73;;;;;;;;;;12542547;28;20041;-72
2021/12/25 18:56:52;;;;;;;34.80;31.13;;;;;;;;;;12541444;28;20033;-72
2021/12/25 19:02:54;;;;;;;28.70;25.63;;;;;;;;;;12541526;28;20033;-72
2021/12/25 19:08:55;;;;;;;30.67;27.35;;;;;;;;;;12542304;28;20068;-73
2021/12/25 19:14:58;;;;;;;35.05;31.25;;;;;;;;;;12547072;28;20060;-73
2021/12/25 19:21:00;;;;;;;38.80;34.55;;;;;;;;;;12551411;28;20389;-73
2021/12/25 19:27:02;;;;;;;31.10;27.83;;;;;;;;;;12550998;28;20036;-73
2021/12/25 19:33:05;;;;;;;31.33;27.98;;;;;;;;;;12551474;28;20052;-73
2021/12/25 19:39:07;;;;;;;34.50;30.13;;;;;;;;;;12550636;28;20037;-73
2021/12/25 19:45:10;;;;;;;30.73;27.53;;;;;;;;;;12550628;28;20037;-73
2021/12/25 19:51:12;;;;;;;32.60;28.92;;;;;;;;;;12550504;28;20052;-73
2021/12/25 19:57:14;;;;;;;42.58;38.10;;;;;;;;;;12549746;28;20394;-72
2021/12/25 20:03:20;;;;;;;31.02;27.77;;;;;;;;;;12548489;28;20029;-73
2021/12/25 20:09:22;;;;;;;34.30;30.83;;;;;;;;;;12548815;28;20052;-73
2021/12/25 20:15:25;;;;;;;41.25;34.33;;;;;;;;;;12548170;28;20056;-73
2021/12/25 20:21:27;;;;;;;33.38;29.98;;;;;;;;;;12549153;28;20044;-73
2021/12/25 20:27:28;;;;;;;27.63;24.77;;;;;;;;;;12529924;28;20474;-73
2021/12/25 20:33:30;;;;;;;28.20;25.30;;;;;;;;;;12546699;28;20497;-73
2021/12/25 20:39:32;;;;;;;27.50;24.65;;;;;;;;;;12547893;28;20033;-73
2021/12/25 20:45:44;;;;;;;30.08;26.88;;;;;;;;;;12529206;28;20037;-73
2021/12/25 20:51:48;;;;;;;38.43;34.43;;;;;;;;;;12547900;28;20116;-74
2021/12/25 20:57:50;;;;;;;39.15;35.00;;;;;;;;;;12546124;28;20049;-72
2021/12/25 21:03:52;;;;;;;35.13;31.42;;;;;;;;;;12547330;28;20033;-72
2021/12/25 21:09:53;;;;;;;45.30;39.55;;;;;;;;;;12545052;28;20056;-72
2021/12/25 21:15:55;;;;;;;38.47;34.47;;;;;;;;;;12544207;28;20052;-73
2021/12/25 21:21:57;;;;;;;39.95;35.67;;;;;;;;;;12544776;28;20021;-73
2021/12/25 21:27:59;;;;;;;39.97;35.88;;;;;;;;;;12543890;28;20056;-72
2021/12/25 21:34:00;;;;;;;41.53;37.40;;;;;;;;;;12544996;28;20045;-73
2021/12/25 21:40:04;;;;;;;36.95;33.03;;;;;;;;;;12544881;28;20033;-73
2021/12/25 21:46:06;;;;;;;33.75;30.20;;;;;;;;;;12544807;28;20044;-73
2021/12/25 21:52:09;;;;;;;34.15;30.45;;;;;;;;;;12543288;28;20040;-73
2021/12/25 21:58:11;;;;;;;28.67;25.67;;;;;;;;;;12543404;28;20041;-74
2021/12/25 22:04:23;;;;;;;27.08;24.27;;;;;;;;;;12543111;28;20033;-74
2021/12/25 22:10:25;;;;;;;24.35;21.92;;;;;;;;;;12543077;28;20060;-74
2021/12/25 22:16:27;;;;;;;26.73;23.97;;;;;;;;;;12543970;28;20056;-73
2021/12/25 22:22:28;;;;;;;25.17;22.42;;;;;;;;;;12542502;28;20040;-74
2021/12/25 22:28:30;;;;;;;23.95;21.45;;;;;;;;;;12542933;28;20052;-73
2021/12/25 22:34:32;;;;;;;27.42;24.70;;;;;;;;;;12542821;28;20045;-74
2021/12/25 22:40:35;;;;;;;26.25;23.45;;;;;;;;;;12543863;28;20040;-73
2021/12/25 22:46:37;;;;;;;26.50;23.92;;;;;;;;;;12543166;28;20032;-72
2021/12/25 22:52:39;;;;;;;31.60;28.35;;;;;;;;;;12552847;28;20049;-73
2021/12/25 22:58:40;;;;;;;39.28;35.05;;;;;;;;;;12552832;28;20033;-73
2021/12/25 23:04:42;;;;;;;33.38;29.33;;;;;;;;;;12551467;28;20037;-74
2021/12/25 23:10:45;;;;;;;35.42;31.83;;;;;;;;;;12552591;28;20040;-73
2021/12/25 23:16:47;;;;;;;;;;;;;;;;;;12551768;28;20036;-73
2021/12/25 23:22:49;;;;;;;28.85;25.83;;;;;;;;;;12550805;28;19933;-73
2021/12/25 23:28:51;;;;;;;31.67;28.25;;;;;;;;;;12551132;28;20480;-73
2021/12/25 23:34:53;;;;;;;28.88;25.63;;;;;;;;;;12549961;28;20041;-72
2021/12/25 23:40:57;;;;;;;32.30;28.15;;;;;;;;;;12551539;28;20035;-73
2021/12/25 23:46:59;;;;;;;30.83;26.42;;;;;;;;;;12550419;28;20055;-72
2021/12/25 23:53:02;;;;;;;29.60;26.40;;;;;;;;;;12549168;28;20041;-72
2021/12/25 23:59:04;;;;;;;27.63;24.15;;;;;;;;;;12549315;28;20028;-73
